Ship Status Report: callsign VRUA8

sailwx.info

Track history (hours):
 
Tides and Currents Weather Stations Pressure Air Temp Water Temp Dewpoint Dewpoint Depression Visibility Wind Speed Wind Dir Waves Ship Positions

Callsign VRUA8 (name unknown)

Last reported at 2015-Apr-16 23:16 UTC. Time now 2015-Aug-28 07:33 UTC.
Position N 22°12' E 113°34'.
Warning: this ship's position is months out of date.

Date/timePositionNaut miles runAvg speedWind from/ knotsBaromVisibWave heightAir tempDewpointWater temp
2015-Apr-16 23:16N 22°12' E 113°34'0 0.0
2015-Apr-16 19:13N 22°12' E 113°34'0 0.0
2015-Apr-16 18:31N 22°12' E 113°34'1616.7
2015-Apr-16 17:34N 22°11' E 113°51'1817.8
2015-Apr-16 16:33N 22°17' E 114°09'3322.2
2015-Apr-16 15:04N 22°12' E 113°34'2636.3
2015-Apr-16 14:21N 22°14' E 114°02'8 9.8
2015-Apr-16 13:33N 22°17' E 114°09'1919.2
2015-Apr-16 12:33N 22°11' E 113°50'10 8.9
2015-Apr-16 11:25N 22°11' E 113°39'2933.7
2015-Apr-16 10:33N 22°17' E 114°09'2222.3
2015-Apr-16 09:34N 22°11' E 113°46'1111.1
2015-Apr-16 08:33N 22°11' E 113°34'3333.3
2015-Apr-16 07:33N 22°17' E 114°09'1918.5
2015-Apr-16 06:33N 22°11' E 113°50'1514.6
2015-Apr-16 05:30N 22°12' E 113°34'2723.9
2015-Apr-16 04:21N 22°14' E 114°03'6 7.9
2015-Apr-16 03:34N 22°17' E 114°09'3331.6
2015-Apr-16 02:31N 22°12' E 113°34'2823.0
2015-Apr-16 01:19N 22°15' E 114°03'6 8.0
2015-Apr-16 00:33N 22°17' E 114°09'3316.6
2015-Apr-15 22:33N 22°12' E 113°34'0 0.0
2015-Apr-15 21:26N 22°12' E 113°34'0 0.0
2015-Apr-15 20:26N 22°12' E 113°34'0 0.0
2015-Apr-15 19:32N 22°12' E 113°34'3334.4
2015-Apr-15 18:34N 22°17' E 114°09'0 0.1
2015-Apr-15 17:34N 22°17' E 114°09'3325.6
2015-Apr-15 16:15N 22°12' E 113°34'1825.9
2015-Apr-15 15:33N 22°12' E 113°53'1615.7
2015-Apr-15 14:33N 22°17' E 114°09'0 0.0
2015-Apr-15 13:33N 22°17' E 114°09'3332.9
2015-Apr-15 12:33N 22°12' E 113°34'2721.9
2015-Apr-15 11:19N 22°14' E 114°03'6 8.0
2015-Apr-15 10:34N 22°17' E 114°08'3332.1
2015-Apr-15 09:33N 22°12' E 113°34'1616.4
2015-Apr-15 08:33N 22°11' E 113°51'1717.3
2015-Apr-15 07:33N 22°17' E 114°09'3332.4
2015-Apr-15 06:32N 22°12' E 113°34'0 0.1
2015-Apr-15 05:32N 22°12' E 113°34'3334.5
2015-Apr-15 04:34N 22°17' E 114°09'1919.1
2015-Apr-15 03:34N 22°11' E 113°50'1514.9
2015-Apr-15 02:33N 22°12' E 113°34'3333.4
2015-Apr-15 01:34N 22°17' E 114°09'1717.2
2015-Apr-15 00:33N 22°11' E 113°51'1716.7
2015-Apr-14 23:33N 22°12' E 113°34'0 0.0
2015-Apr-14 22:33N 22°12' E 113°34'0 0.0
2015-Apr-14 21:32N 22°12' E 113°34'1414.7
2015-Apr-14 20:33N 22°12' E 113°49'1919.3
2015-Apr-14 19:34N 22°17' E 114°09'3333.1
2015-Apr-14 18:33N 22°12' E 113°34'0 0.0
2015-Apr-14 17:33N 22°12' E 113°34'1 0.7
2015-Apr-14 16:34N 22°11' E 113°34'3333.0
2015-Apr-14 15:34N 22°17' E 114°09'1717.5
2015-Apr-14 14:34N 22°11' E 113°51'1716.5
2015-Apr-14 13:33N 22°12' E 113°34'1716.5
2015-Apr-14 12:33N 22°11' E 113°51'1717.5
2015-Apr-14 11:34N 22°17' E 114°09'3323.0
2015-Apr-14 10:06N 22°12' E 113°34'2935.8
2015-Apr-14 09:18N 22°16' E 114°04'5 6.3
2015-Apr-14 08:34N 22°17' E 114°09'3328.0
2015-Apr-14 07:22N 22°12' E 113°34'2626.9
2015-Apr-14 06:24N 22°14' E 114°02'8 9.2
2015-Apr-14 05:33N 22°17' E 114°09'1717.2
2015-Apr-14 04:32N 22°11' E 113°51'1616.4
2015-Apr-14 03:32N 22°12' E 113°34'3333.9
2015-Apr-14 02:33N 22°17' E 114°09'1817.8
2015-Apr-14 01:33N 22°11' E 113°51'1615.8
2015-Apr-14 00:33N 22°12' E 113°34'3333.7
2015-Apr-13 23:33N 22°17' E 114°09'0 0.0
2015-Apr-13 22:33N 22°17' E 114°09'0 0.0
2015-Apr-13 21:33N 22°17' E 114°09'0 0.0
2015-Apr-13 20:34N 22°17' E 114°09'0 0.0
2015-Apr-13 19:33N 22°17' E 114°09'0 0.4
2015-Apr-13 18:34N 22°17' E 114°09'18 9.0
2015-Apr-13 16:34N 22°11' E 113°50'1717.1
2015-Apr-13 15:33N 22°17' E 114°08'3224.5
2015-Apr-13 14:15N 22°12' E 113°34'2736.7
2015-Apr-13 13:31N 22°14' E 114°02'7 7.2
2015-Apr-13 12:34N 22°17' E 114°09'3322.8
2015-Apr-13 11:06N 22°12' E 113°34'1934.2
2015-Apr-13 10:33N 22°12' E 113°54'1515.4
2015-Apr-13 09:34N 22°17' E 114°09'3325.4
2015-Apr-13 08:15N 22°12' E 113°34'1724.3
2015-Apr-13 07:34N 22°12' E 113°52'1717.1
2015-Apr-13 06:34N 22°17' E 114°09'3316.5
2015-Apr-13 04:33N 22°11' E 113°34'3333.2
2015-Apr-13 03:33N 22°17' E 114°09'1818.0
2015-Apr-13 02:34N 22°11' E 113°51'1615.6
2015-Apr-13 01:33N 22°11' E 113°34'3333.2
2015-Apr-13 00:33N 22°17' E 114°09'1817.6
2015-Apr-12 23:33N 22°11' E 113°51'16 3.3
2015-Apr-12 18:31N 22°12' E 113°34'3334.6
2015-Apr-12 17:34N 22°17' E 114°09'2019.5
2015-Apr-12 16:34N 22°11' E 113°49'1514.5
2015-Apr-12 15:33N 22°12' E 113°34'3333.7
2015-Apr-12 14:33N 22°17' E 114°09'1717.4
2015-Apr-12 13:34N 22°11' E 113°52'1716.4
2015-Apr-12 12:33N 22°12' E 113°34'3333.6
2015-Apr-12 11:33N 22°17' E 114°09'1919.5
2015-Apr-12 10:33N 22°11' E 113°49'1414.2
2015-Apr-12 09:33N 22°11' E 113°34'3333.2
2015-Apr-12 08:33N 22°17' E 114°09'1918.5
2015-Apr-12 07:33N 22°11' E 113°50'1514.6
2015-Apr-12 06:30N 22°12' E 113°34'3335.6
2015-Apr-12 05:33N 22°17' E 114°09'0 0.0
2015-Apr-12 04:33N 22°17' E 114°09'3333.4
2015-Apr-12 03:33N 22°12' E 113°34'1615.9
2015-Apr-12 02:33N 22°12' E 113°51'1817.9
2015-Apr-12 01:33N 22°17' E 114°09'0 0.0
2015-Apr-12 00:33N 22°17' E 114°09'0 0.0
2015-Apr-11 23:33N 22°17' E 114°09'0 0.0
2015-Apr-11 22:33N 22°17' E 114°09'0 0.0
2015-Apr-11 21:34N 22°17' E 114°09'0 0.0
2015-Apr-11 20:34N 22°17' E 114°09'0 0.0
2015-Apr-11 19:34N 22°17' E 114°09'0 0.0
2015-Apr-11 18:34N 22°17' E 114°09'18 9.2
2015-Apr-11 16:34N 22°12' E 113°50'1818.1
2015-Apr-11 15:33N 22°17' E 114°09'3323.1
2015-Apr-11 14:08N 22°12' E 113°34'1932.9
2015-Apr-11 13:33N 22°12' E 113°54'1515.0
2015-Apr-11 12:33N 22°17' E 114°09'3323.7
2015-Apr-11 11:09N 22°12' E 113°34'1932.0
2015-Apr-11 10:33N 22°12' E 113°54'1414.5
2015-Apr-11 09:34N 22°17' E 114°09'3325.9
2015-Apr-11 08:17N 22°12' E 113°34'1723.6
2015-Apr-11 07:34N 22°12' E 113°52'1616.5
2015-Apr-11 06:33N 22°17' E 114°09'3316.5
2015-Apr-11 04:33N 22°11' E 113°34'3333.3
2015-Apr-11 03:34N 22°17' E 114°09'1817.8
2015-Apr-11 02:33N 22°11' E 113°51'1616.1
2015-Apr-11 01:33N 22°12' E 113°34'3333.4
2015-Apr-11 00:34N 22°17' E 114°09'1615.7
2015-Apr-10 23:33N 22°11' E 113°53'18 7.7
2015-Apr-10 21:10N 22°12' E 113°34'0 0.0
2015-Apr-10 20:32N 22°12' E 113°34'0 0.0
2015-Apr-10 19:30N 22°12' E 113°34'15 7.8
2015-Apr-10 17:33N 22°12' E 113°50'1918.7
2015-Apr-10 16:34N 22°17' E 114°09'3322.2
2015-Apr-10 15:04N 22°12' E 113°34'1733.2
2015-Apr-10 14:34N 22°11' E 113°52'1717.3
2015-Apr-10 13:34N 22°17' E 114°09'1717.1
2015-Apr-10 12:32N 22°11' E 113°51'1716.0
2015-Apr-10 11:30N 22°12' E 113°34'3335.3
2015-Apr-10 10:34N 22°17' E 114°09'1918.5
2015-Apr-10 09:34N 22°11' E 113°51'1615.7
2015-Apr-10 08:33N 22°12' E 113°34'3333.3
2015-Apr-10 07:33N 22°17' E 114°09'2019.7
2015-Apr-10 06:33N 22°11' E 113°49'3 1.4
2015-Apr-10 04:33N 22°12' E 113°52'1717.0
2015-Apr-10 03:33N 22°17' E 114°09'3331.1
2015-Apr-10 02:29N 22°12' E 113°34'2826.8
2015-Apr-10 01:27N 22°15' E 114°04'6 6.3
2015-Apr-10 00:33N 22°17' E 114°09'3333.2
2015-Apr-09 23:34N 22°12' E 113°34'0 0.1
2015-Apr-09 18:28N 22°12' E 113°34'3436.9
2015-Apr-09 17:33N 22°17' E 114°09'1817.8
2015-Apr-09 16:33N 22°11' E 113°51'1616.3
2015-Apr-09 15:33N 22°12' E 113°34'3333.3
2015-Apr-09 14:33N 22°17' E 114°09'1818.0
2015-Apr-09 13:34N 22°11' E 113°51'1615.5
2015-Apr-09 12:33N 22°11' E 113°34'3333.0
2015-Apr-09 11:34N 22°17' E 114°09'2020.0
2015-Apr-09 10:33N 22°11' E 113°49'1414.0
2015-Apr-09 09:33N 22°12' E 113°34'1716.5
2015-Apr-09 08:33N 22°11' E 113°51'1717.4
2015-Apr-09 07:34N 22°17' E 114°09'3322.5
2015-Apr-09 06:05N 22°12' E 113°34'1934.9
2015-Apr-09 05:33N 22°12' E 113°54'1515.3
2015-Apr-09 04:33N 22°17' E 114°09'1716.7
2015-Apr-09 03:31N 22°11' E 113°52'1716.6
2015-Apr-09 02:31N 22°12' E 113°34'3334.7
2015-Apr-09 01:33N 22°17' E 114°09'1716.7
2015-Apr-09 00:32N 22°11' E 113°52'17 5.5
2015-Apr-08 21:28N 22°12' E 113°34'3336.0
2015-Apr-08 20:34N 22°18' E 114°09'1 0.5
2015-Apr-08 19:33N 22°17' E 114°09'0 0.0
2015-Apr-08 18:33N 22°17' E 114°09'3322.1
2015-Apr-08 17:03N 22°12' E 113°34'1735.3
2015-Apr-08 16:33N 22°12' E 113°53'1616.3
2015-Apr-08 15:33N 22°17' E 114°09'3321.9
2015-Apr-08 14:03N 22°12' E 113°34'1632.6
2015-Apr-08 13:33N 22°11' E 113°51'1817.9
2015-Apr-08 12:34N 22°17' E 114°09'18 9.2
2015-Apr-08 10:33N 22°11' E 113°50'1817.9
2015-Apr-08 09:33N 22°18' E 114°08'3327.3
2015-Apr-08 08:22N 22°12' E 113°34'2927.6
2015-Apr-08 07:19N 22°16' E 114°04'4 5.9
2015-Apr-08 06:33N 22°17' E 114°09'3316.4
2015-Apr-08 04:33N 22°11' E 113°34'3333.1
2015-Apr-08 03:33N 22°17' E 114°09'1918.8
2015-Apr-08 02:33N 22°11' E 113°50'1414.4
2015-Apr-08 01:33N 22°11' E 113°34'3332.7
2015-Apr-08 00:33N 22°17' E 114°09'1817.8
2015-Apr-07 23:33N 22°11' E 113°51'0 0.0
2015-Apr-07 17:34N 22°11' E 113°51'1817.6
2015-Apr-07 16:33N 22°17' E 114°09'7 3.2
2015-Apr-07 14:20N 22°14' E 114°02'7 9.1
2015-Apr-07 13:34N 22°17' E 114°09'2019.9
2015-Apr-07 12:33N 22°11' E 113°49'1313.2
2015-Apr-07 11:33N 22°11' E 113°34'3332.9
2015-Apr-07 10:34N 22°17' E 114°09'2020.2
2015-Apr-07 09:33N 22°11' E 113°48'1413.0
2015-Apr-07 08:30N 22°12' E 113°34'3335.3
2015-Apr-07 07:34N 22°17' E 114°09'1818.2
2015-Apr-07 06:34N 22°11' E 113°51'0 0.2
2015-Apr-07 04:33N 22°11' E 113°51'1717.5
2015-Apr-07 03:33N 22°17' E 114°09'3323.4
2015-Apr-07 02:08N 22°12' E 113°34'2031.9
2015-Apr-07 01:31N 22°12' E 113°55'1414.5
2015-Apr-07 00:33N 22°17' E 114°09'3333.4
2015-Apr-06 23:33N 22°12' E 113°34'  
Track history (hours):
 
Tides and Currents Weather Stations Pressure Air Temp Water Temp Dewpoint Dewpoint Depression Visibility Wind Speed Wind Dir Waves Ship Positions

Callsign VRUA8 (name unknown)

Last reported at 2015-Apr-16 23:16 UTC. Time now 2015-Aug-28 07:33 UTC.
Position N 22°12' E 113°34'.
Warning: this ship's position is months out of date.

Date/timePositionNaut miles runAvg speedWind from/ knotsBaromVisibWave heightAir tempDewpointWater temp
2015-Apr-16 23:16N 22°12' E 113°34'0 0.0
2015-Apr-16 19:13N 22°12' E 113°34'0 0.0
2015-Apr-16 18:31N 22°12' E 113°34'1616.7
2015-Apr-16 17:34N 22°11' E 113°51'1817.8
2015-Apr-16 16:33N 22°17' E 114°09'3322.2
2015-Apr-16 15:04N 22°12' E 113°34'2636.3
2015-Apr-16 14:21N 22°14' E 114°02'8 9.8
2015-Apr-16 13:33N 22°17' E 114°09'1919.2
2015-Apr-16 12:33N 22°11' E 113°50'10 8.9
2015-Apr-16 11:25N 22°11' E 113°39'2933.7
2015-Apr-16 10:33N 22°17' E 114°09'2222.3
2015-Apr-16 09:34N 22°11' E 113°46'1111.1
2015-Apr-16 08:33N 22°11' E 113°34'3333.3
2015-Apr-16 07:33N 22°17' E 114°09'1918.5
2015-Apr-16 06:33N 22°11' E 113°50'1514.6
2015-Apr-16 05:30N 22°12' E 113°34'2723.9
2015-Apr-16 04:21N 22°14' E 114°03'6 7.9
2015-Apr-16 03:34N 22°17' E 114°09'3331.6
2015-Apr-16 02:31N 22°12' E 113°34'2823.0
2015-Apr-16 01:19N 22°15' E 114°03'6 8.0
2015-Apr-16 00:33N 22°17' E 114°09'3316.6
2015-Apr-15 22:33N 22°12' E 113°34'0 0.0
2015-Apr-15 21:26N 22°12' E 113°34'0 0.0
2015-Apr-15 20:26N 22°12' E 113°34'0 0.0
2015-Apr-15 19:32N 22°12' E 113°34'3334.4
2015-Apr-15 18:34N 22°17' E 114°09'0 0.1
2015-Apr-15 17:34N 22°17' E 114°09'3325.6
2015-Apr-15 16:15N 22°12' E 113°34'1825.9
2015-Apr-15 15:33N 22°12' E 113°53'1615.7
2015-Apr-15 14:33N 22°17' E 114°09'0 0.0
2015-Apr-15 13:33N 22°17' E 114°09'3332.9
2015-Apr-15 12:33N 22°12' E 113°34'2721.9
2015-Apr-15 11:19N 22°14' E 114°03'6 8.0
2015-Apr-15 10:34N 22°17' E 114°08'3332.1
2015-Apr-15 09:33N 22°12' E 113°34'1616.4
2015-Apr-15 08:33N 22°11' E 113°51'1717.3
2015-Apr-15 07:33N 22°17' E 114°09'3332.4
2015-Apr-15 06:32N 22°12' E 113°34'0 0.1
2015-Apr-15 05:32N 22°12' E 113°34'3334.5
2015-Apr-15 04:34N 22°17' E 114°09'1919.1
2015-Apr-15 03:34N 22°11' E 113°50'1514.9
2015-Apr-15 02:33N 22°12' E 113°34'3333.4
2015-Apr-15 01:34N 22°17' E 114°09'1717.2
2015-Apr-15 00:33N 22°11' E 113°51'1716.7
2015-Apr-14 23:33N 22°12' E 113°34'0 0.0
2015-Apr-14 22:33N 22°12' E 113°34'0 0.0
2015-Apr-14 21:32N 22°12' E 113°34'1414.7
2015-Apr-14 20:33N 22°12' E 113°49'1919.3
2015-Apr-14 19:34N 22°17' E 114°09'3333.1
2015-Apr-14 18:33N 22°12' E 113°34'0 0.0
2015-Apr-14 17:33N 22°12' E 113°34'1 0.7
2015-Apr-14 16:34N 22°11' E 113°34'3333.0
2015-Apr-14 15:34N 22°17' E 114°09'1717.5
2015-Apr-14 14:34N 22°11' E 113°51'1716.5
2015-Apr-14 13:33N 22°12' E 113°34'1716.5
2015-Apr-14 12:33N 22°11' E 113°51'1717.5
2015-Apr-14 11:34N 22°17' E 114°09'3323.0
2015-Apr-14 10:06N 22°12' E 113°34'2935.8
2015-Apr-14 09:18N 22°16' E 114°04'5 6.3
2015-Apr-14 08:34N 22°17' E 114°09'3328.0
2015-Apr-14 07:22N 22°12' E 113°34'2626.9
2015-Apr-14 06:24N 22°14' E 114°02'8 9.2
2015-Apr-14 05:33N 22°17' E 114°09'1717.2
2015-Apr-14 04:32N 22°11' E 113°51'1616.4
2015-Apr-14 03:32N 22°12' E 113°34'3333.9
2015-Apr-14 02:33N 22°17' E 114°09'1817.8
2015-Apr-14 01:33N 22°11' E 113°51'1615.8
2015-Apr-14 00:33N 22°12' E 113°34'3333.7
2015-Apr-13 23:33N 22°17' E 114°09'0 0.0
2015-Apr-13 22:33N 22°17' E 114°09'0 0.0
2015-Apr-13 21:33N 22°17' E 114°09'0 0.0
2015-Apr-13 20:34N 22°17' E 114°09'0 0.0
2015-Apr-13 19:33N 22°17' E 114°09'0 0.4
2015-Apr-13 18:34N 22°17' E 114°09'18 9.0
2015-Apr-13 16:34N 22°11' E 113°50'1717.1
2015-Apr-13 15:33N 22°17' E 114°08'3224.5
2015-Apr-13 14:15N 22°12' E 113°34'2736.7
2015-Apr-13 13:31N 22°14' E 114°02'7 7.2
2015-Apr-13 12:34N 22°17' E 114°09'3322.8
2015-Apr-13 11:06N 22°12' E 113°34'1934.2
2015-Apr-13 10:33N 22°12' E 113°54'1515.4
2015-Apr-13 09:34N 22°17' E 114°09'3325.4
2015-Apr-13 08:15N 22°12' E 113°34'1724.3
2015-Apr-13 07:34N 22°12' E 113°52'1717.1
2015-Apr-13 06:34N 22°17' E 114°09'3316.5
2015-Apr-13 04:33N 22°11' E 113°34'3333.2
2015-Apr-13 03:33N 22°17' E 114°09'1818.0
2015-Apr-13 02:34N 22°11' E 113°51'1615.6
2015-Apr-13 01:33N 22°11' E 113°34'3333.2
2015-Apr-13 00:33N 22°17' E 114°09'1817.6
2015-Apr-12 23:33N 22°11' E 113°51'16 3.3
2015-Apr-12 18:31N 22°12' E 113°34'3334.6
2015-Apr-12 17:34N 22°17' E 114°09'2019.5
2015-Apr-12 16:34N 22°11' E 113°49'1514.5
2015-Apr-12 15:33N 22°12' E 113°34'3333.7
2015-Apr-12 14:33N 22°17' E 114°09'1717.4
2015-Apr-12 13:34N 22°11' E 113°52'1716.4
2015-Apr-12 12:33N 22°12' E 113°34'3333.6
2015-Apr-12 11:33N 22°17' E 114°09'1919.5
2015-Apr-12 10:33N 22°11' E 113°49'1414.2
2015-Apr-12 09:33N 22°11' E 113°34'3333.2
2015-Apr-12 08:33N 22°17' E 114°09'1918.5
2015-Apr-12 07:33N 22°11' E 113°50'1514.6
2015-Apr-12 06:30N 22°12' E 113°34'3335.6
2015-Apr-12 05:33N 22°17' E 114°09'0 0.0
2015-Apr-12 04:33N 22°17' E 114°09'3333.4
2015-Apr-12 03:33N 22°12' E 113°34'1615.9
2015-Apr-12 02:33N 22°12' E 113°51'1817.9
2015-Apr-12 01:33N 22°17' E 114°09'0 0.0
2015-Apr-12 00:33N 22°17' E 114°09'0 0.0
2015-Apr-11 23:33N 22°17' E 114°09'0 0.0
2015-Apr-11 22:33N 22°17' E 114°09'0 0.0
2015-Apr-11 21:34N 22°17' E 114°09'0 0.0
2015-Apr-11 20:34N 22°17' E 114°09'0 0.0
2015-Apr-11 19:34N 22°17' E 114°09'0 0.0
2015-Apr-11 18:34N 22°17' E 114°09'18 9.2
2015-Apr-11 16:34N 22°12' E 113°50'1818.1
2015-Apr-11 15:33N 22°17' E 114°09'3323.1
2015-Apr-11 14:08N 22°12' E 113°34'1932.9
2015-Apr-11 13:33N 22°12' E 113°54'1515.0
2015-Apr-11 12:33N 22°17' E 114°09'3323.7
2015-Apr-11 11:09N 22°12' E 113°34'1932.0
2015-Apr-11 10:33N 22°12' E 113°54'1414.5
2015-Apr-11 09:34N 22°17' E 114°09'3325.9
2015-Apr-11 08:17N 22°12' E 113°34'1723.6
2015-Apr-11 07:34N 22°12' E 113°52'1616.5
2015-Apr-11 06:33N 22°17' E 114°09'3316.5
2015-Apr-11 04:33N 22°11' E 113°34'3333.3
2015-Apr-11 03:34N 22°17' E 114°09'1817.8
2015-Apr-11 02:33N 22°11' E 113°51'1616.1
2015-Apr-11 01:33N 22°12' E 113°34'3333.4
2015-Apr-11 00:34N 22°17' E 114°09'1615.7
2015-Apr-10 23:33N 22°11' E 113°53'18 7.7
2015-Apr-10 21:10N 22°12' E 113°34'0 0.0
2015-Apr-10 20:32N 22°12' E 113°34'0 0.0
2015-Apr-10 19:30N 22°12' E 113°34'15 7.8
2015-Apr-10 17:33N 22°12' E 113°50'1918.7
2015-Apr-10 16:34N 22°17' E 114°09'3322.2
2015-Apr-10 15:04N 22°12' E 113°34'1733.2
2015-Apr-10 14:34N 22°11' E 113°52'1717.3
2015-Apr-10 13:34N 22°17' E 114°09'1717.1
2015-Apr-10 12:32N 22°11' E 113°51'1716.0
2015-Apr-10 11:30N 22°12' E 113°34'3335.3
2015-Apr-10 10:34N 22°17' E 114°09'1918.5
2015-Apr-10 09:34N 22°11' E 113°51'1615.7
2015-Apr-10 08:33N 22°12' E 113°34'3333.3
2015-Apr-10 07:33N 22°17' E 114°09'2019.7
2015-Apr-10 06:33N 22°11' E 113°49'3 1.4
2015-Apr-10 04:33N 22°12' E 113°52'1717.0
2015-Apr-10 03:33N 22°17' E 114°09'3331.1
2015-Apr-10 02:29N 22°12' E 113°34'2826.8
2015-Apr-10 01:27N 22°15' E 114°04'6 6.3
2015-Apr-10 00:33N 22°17' E 114°09'3333.2
2015-Apr-09 23:34N 22°12' E 113°34'0 0.1
2015-Apr-09 18:28N 22°12' E 113°34'3436.9
2015-Apr-09 17:33N 22°17' E 114°09'1817.8
2015-Apr-09 16:33N 22°11' E 113°51'1616.3
2015-Apr-09 15:33N 22°12' E 113°34'3333.3
2015-Apr-09 14:33N 22°17' E 114°09'1818.0
2015-Apr-09 13:34N 22°11' E 113°51'1615.5
2015-Apr-09 12:33N 22°11' E 113°34'3333.0
2015-Apr-09 11:34N 22°17' E 114°09'2020.0
2015-Apr-09 10:33N 22°11' E 113°49'1414.0
2015-Apr-09 09:33N 22°12' E 113°34'1716.5
2015-Apr-09 08:33N 22°11' E 113°51'1717.4
2015-Apr-09 07:34N 22°17' E 114°09'3322.5
2015-Apr-09 06:05N 22°12' E 113°34'1934.9
2015-Apr-09 05:33N 22°12' E 113°54'1515.3
2015-Apr-09 04:33N 22°17' E 114°09'1716.7
2015-Apr-09 03:31N 22°11' E 113°52'1716.6
2015-Apr-09 02:31N 22°12' E 113°34'3334.7
2015-Apr-09 01:33N 22°17' E 114°09'1716.7
2015-Apr-09 00:32N 22°11' E 113°52'17 5.5
2015-Apr-08 21:28N 22°12' E 113°34'3336.0
2015-Apr-08 20:34N 22°18' E 114°09'1 0.5
2015-Apr-08 19:33N 22°17' E 114°09'0 0.0
2015-Apr-08 18:33N 22°17' E 114°09'3322.1
2015-Apr-08 17:03N 22°12' E 113°34'1735.3
2015-Apr-08 16:33N 22°12' E 113°53'1616.3
2015-Apr-08 15:33N 22°17' E 114°09'3321.9
2015-Apr-08 14:03N 22°12' E 113°34'1632.6
2015-Apr-08 13:33N 22°11' E 113°51'1817.9
2015-Apr-08 12:34N 22°17' E 114°09'18 9.2
2015-Apr-08 10:33N 22°11' E 113°50'1817.9
2015-Apr-08 09:33N 22°18' E 114°08'3327.3
2015-Apr-08 08:22N 22°12' E 113°34'2927.6
2015-Apr-08 07:19N 22°16' E 114°04'4 5.9
2015-Apr-08 06:33N 22°17' E 114°09'3316.4
2015-Apr-08 04:33N 22°11' E 113°34'3333.1
2015-Apr-08 03:33N 22°17' E 114°09'1918.8
2015-Apr-08 02:33N 22°11' E 113°50'1414.4
2015-Apr-08 01:33N 22°11' E 113°34'3332.7
2015-Apr-08 00:33N 22°17' E 114°09'1817.8
2015-Apr-07 23:33N 22°11' E 113°51'0 0.0
2015-Apr-07 17:34N 22°11' E 113°51'1817.6
2015-Apr-07 16:33N 22°17' E 114°09'7 3.2
2015-Apr-07 14:20N 22°14' E 114°02'7 9.1
2015-Apr-07 13:34N 22°17' E 114°09'2019.9
2015-Apr-07 12:33N 22°11' E 113°49'1313.2
2015-Apr-07 11:33N 22°11' E 113°34'3332.9
2015-Apr-07 10:34N 22°17' E 114°09'2020.2
2015-Apr-07 09:33N 22°11' E 113°48'1413.0
2015-Apr-07 08:30N 22°12' E 113°34'3335.3
2015-Apr-07 07:34N 22°17' E 114°09'1818.2
2015-Apr-07 06:34N 22°11' E 113°51'0 0.2
2015-Apr-07 04:33N 22°11' E 113°51'1717.5
2015-Apr-07 03:33N 22°17' E 114°09'3323.4
2015-Apr-07 02:08N 22°12' E 113°34'2031.9
2015-Apr-07 01:31N 22°12' E 113°55'1414.5
2015-Apr-07 00:33N 22°17' E 114°09'3333.4
2015-Apr-06 23:33N 22°12' E 113°34'  

Dump ship's entire track history